Seabulk Challenge — KNJL — position and weather

sailwx.info

Track history (hours):
 
Tides and Currents Weather Stations Pressure Air Temp Water Temp Dewpoint Dewpoint Depression Visibility Wind Speed Wind Dir Waves Ship Positions

Seabulk Challenge

Owner: Seabulk Tankers, Inc., Fort Lauderdale, FL. More information available from US FCC via Universal Licensing System and Coast Guard Vessel Documentation Center.

Last reported at 2017-May-22 10:16 UTC. Time now 2017-May-23 12:37 UTC.
Position N 27°05' W 079°44'.

Length 192 m; draft 9.8 m.

Type: Tanker. MMSI: 303104000.

Date/timePositionNaut miles runAvg speedWind from/ knotsBaromVisibWave heightAir tempDewpointWater temp
2017-May-22 10:16N 27°05' W 079°44'518.8
2017-May-22 10:00N 27°00' W 079°44'3318.9
2017-May-22 08:14N 26°27' W 079°46'419.1
2017-May-22 08:00N 26°23' W 079°47'1019.1
2017-May-22 07:30N 26°13' W 079°47'1019.2
2017-May-22 07:00N 26°04' W 079°48'1019.2
2017-May-22 06:30N 25°54' W 079°50'1019.4
2017-May-22 06:00N 25°45' W 079°52'1019.3
2017-May-22 05:30N 25°35' W 079°53'1019.1
2017-May-22 05:00N 25°26' W 079°56'1018.9
2017-May-22 04:30N 25°17' W 079°60'7817.4
2017-May-22 00:02N 24°21' W 080°59'016.8
2017-May-22 00:00N 24°21' W 080°59'1016.9
2017-May-21 23:26N 24°18' W 081°10'716.6
2017-May-21 23:00N 24°16' W 081°17'  
2017-May-14 02:57N 29°21' W 094°47'613.3
2017-May-14 02:30N 29°26' W 094°50'612.4
2017-May-14 02:00N 29°32' W 094°54'611.8
2017-May-14 01:30N 29°37' W 094°57'510.4
2017-May-14 01:00N 29°42' W 094°60'4 7.9
2017-May-14 00:30N 29°44' W 095°03'  
Track history (hours):
 
Tides and Currents Weather Stations Pressure Air Temp Water Temp Dewpoint Dewpoint Depression Visibility Wind Speed Wind Dir Waves Ship Positions

Seabulk Challenge

Owner: Seabulk Tankers, Inc., Fort Lauderdale, FL. More information available from US FCC via Universal Licensing System and Coast Guard Vessel Documentation Center.

Last reported at 2017-May-22 10:16 UTC. Time now 2017-May-23 12:37 UTC.
Position N 27°05' W 079°44'.

Length 192 m; draft 9.8 m.

Type: Tanker. MMSI: 303104000.

Date/timePositionNaut miles runAvg speedWind from/ knotsBaromVisibWave heightAir tempDewpointWater temp
2017-May-22 10:16N 27°05' W 079°44'518.8
2017-May-22 10:00N 27°00' W 079°44'3318.9
2017-May-22 08:14N 26°27' W 079°46'419.1
2017-May-22 08:00N 26°23' W 079°47'1019.1
2017-May-22 07:30N 26°13' W 079°47'1019.2
2017-May-22 07:00N 26°04' W 079°48'1019.2
2017-May-22 06:30N 25°54' W 079°50'1019.4
2017-May-22 06:00N 25°45' W 079°52'1019.3
2017-May-22 05:30N 25°35' W 079°53'1019.1
2017-May-22 05:00N 25°26' W 079°56'1018.9
2017-May-22 04:30N 25°17' W 079°60'7817.4
2017-May-22 00:02N 24°21' W 080°59'016.8
2017-May-22 00:00N 24°21' W 080°59'1016.9
2017-May-21 23:26N 24°18' W 081°10'716.6
2017-May-21 23:00N 24°16' W 081°17'  
2017-May-14 02:57N 29°21' W 094°47'613.3
2017-May-14 02:30N 29°26' W 094°50'612.4
2017-May-14 02:00N 29°32' W 094°54'611.8
2017-May-14 01:30N 29°37' W 094°57'510.4
2017-May-14 01:00N 29°42' W 094°60'4 7.9
2017-May-14 00:30N 29°44' W 095°03'  

Dump ship's entire track history